Nettleton, Mississippi
Current Conditions -  °F | °C
As of 11:53 AM on Saturday 25 Oct 2014 (Local Time) from KTUP Reporting Station
Clear Clear  
Wind Chill: 76°   Ceiling: Unl
Heat Index: 76°   Visibility: 10mi
Dew Point: 59°   Wind: 10mph
Humidity: 56%   Direction: 290°WNW
Pressure: 30.1"   Gusts: NA
Location:  34.09°N, 88.62°W
Report Text: KTUP 251653Z 29009KT 10SM CLR 24/15 A3010 RMK AO2 SLP191 T02440150 $
Loading
Personal Weather Stations






























Interactive Weather Map
Tropical Storm Tracking
New forecast layout! Learn more

10-Day Weather Forecast

Advertisements
Track Severe Weather on mobile